createdAt,value
2023-05-20T00:01:04.367Z,100.00
2023-05-20T00:03:31.184Z,100.00
2023-05-20T00:05:58.204Z,100.00
2023-05-20T00:08:25.487Z,100.00
2023-05-20T00:10:52.331Z,100.00
2023-05-20T00:13:19.251Z,100.00
2023-05-20T00:15:46.145Z,100.00
2023-05-20T00:18:12.923Z,100.00
2023-05-20T00:20:39.851Z,100.00
2023-05-20T00:23:06.944Z,100.00
2023-05-20T00:25:33.898Z,100.00
2023-05-20T00:28:01.147Z,100.00
2023-05-20T00:30:28.156Z,100.00
2023-05-20T00:32:54.955Z,100.00
2023-05-20T00:35:21.964Z,100.00
2023-05-20T00:37:48.787Z,100.00
2023-05-20T00:40:16.318Z,100.00
2023-05-20T00:42:43.202Z,100.00
2023-05-20T00:45:10.631Z,100.00
2023-05-20T00:47:38.263Z,100.00
2023-05-20T00:50:05.868Z,100.00
2023-05-20T00:52:32.717Z,100.00
2023-05-20T00:54:59.829Z,100.00
2023-05-20T00:57:27.004Z,100.00
2023-05-20T00:59:53.882Z,100.00
2023-05-20T01:02:21.466Z,100.00
2023-05-20T01:04:48.607Z,100.00
2023-05-20T01:07:16.541Z,100.00
2023-05-20T01:09:43.409Z,100.00
2023-05-20T01:12:15.371Z,100.00
2023-05-20T01:14:59.208Z,100.00
2023-05-20T01:17:27.431Z,100.00
2023-05-20T01:19:54.922Z,100.00
2023-05-20T01:22:26.826Z,100.00
2023-05-20T01:24:53.660Z,100.00
2023-05-20T01:27:22.712Z,100.00
2023-05-20T01:29:53.542Z,100.00
2023-05-20T01:32:28.601Z,100.00
2023-05-20T01:34:55.764Z,100.00
2023-05-20T01:37:22.591Z,100.00
2023-05-20T01:39:49.981Z,100.00
2023-05-20T01:42:17.281Z,100.00
2023-05-20T01:44:44.181Z,100.00
2023-05-20T01:47:11.137Z,100.00
2023-05-20T01:49:37.919Z,100.00
2023-05-20T01:52:05.828Z,100.00
2023-05-20T01:54:34.072Z,100.00
2023-05-20T01:57:01.757Z,100.00
2023-05-20T01:59:28.901Z,100.00
2023-05-20T02:01:56.319Z,100.00
2023-05-20T02:04:23.218Z,100.00
2023-05-20T02:06:50.542Z,100.00
2023-05-20T02:09:18.693Z,100.00
2023-05-20T02:11:45.507Z,100.00
2023-05-20T02:14:12.624Z,100.00
2023-05-20T02:16:39.665Z,100.00
2023-05-20T02:19:12.980Z,100.00
2023-05-20T02:21:41.363Z,100.00
2023-05-20T02:24:10.149Z,100.00
2023-05-20T02:26:37.240Z,100.00
2023-05-20T02:29:04.011Z,100.00
2023-05-20T02:31:31.040Z,100.00
2023-05-20T02:33:57.925Z,100.00
2023-05-20T02:36:24.839Z,100.00
2023-05-20T02:38:51.703Z,100.00
2023-05-20T02:41:18.598Z,100.00
2023-05-20T02:43:47.090Z,100.00
2023-05-20T02:46:13.994Z,100.00
2023-05-20T02:48:41.023Z,100.00
2023-05-20T02:51:07.836Z,100.00
2023-05-20T02:53:34.628Z,100.00
2023-05-20T02:56:01.722Z,100.00
2023-05-20T02:58:29.611Z,100.00
2023-05-20T03:00:57.826Z,100.00
2023-05-20T03:03:27.303Z,100.00
2023-05-20T03:05:54.304Z,100.00
2023-05-20T03:08:22.411Z,100.00
2023-05-20T03:10:49.289Z,100.00
2023-05-20T03:13:16.141Z,100.00
2023-05-20T03:15:45.581Z,100.00
2023-05-20T03:18:13.777Z,100.00
2023-05-20T03:20:41.715Z,100.00
2023-05-20T03:23:09.379Z,100.00
2023-05-20T03:25:37.519Z,100.00
2023-05-20T03:28:06.710Z,100.00
2023-05-20T03:30:34.915Z,100.00
2023-05-20T03:33:03.252Z,100.00
2023-05-20T03:35:30.583Z,100.00
2023-05-20T03:37:58.749Z,100.00
2023-05-20T03:40:26.074Z,100.00
2023-05-20T03:42:53.485Z,100.00
2023-05-20T03:45:21.042Z,100.00
2023-05-20T03:48:08.311Z,100.00
2023-05-20T03:50:36.009Z,100.00
2023-05-20T03:53:03.115Z,100.00
2023-05-20T03:55:36.019Z,100.00
2023-05-20T03:58:03.650Z,100.00
2023-05-20T04:00:32.044Z,100.00
2023-05-20T04:02:58.913Z,100.00
2023-05-20T04:05:26.832Z,100.00
2023-05-20T04:07:54.802Z,100.00
2023-05-20T04:10:22.107Z,100.00
2023-05-20T04:12:50.693Z,100.00
2023-05-20T04:15:18.183Z,100.00
2023-05-20T04:17:51.109Z,100.00
2023-05-20T04:20:18.774Z,100.00
2023-05-20T04:22:46.204Z,100.00
2023-05-20T04:25:14.065Z,100.00
2023-05-20T04:27:41.292Z,100.00
2023-05-20T04:30:08.519Z,100.00
2023-05-20T04:32:38.874Z,100.00
2023-05-20T04:35:11.742Z,100.00
2023-05-20T04:37:39.355Z,100.00
2023-05-20T04:40:08.235Z,100.00
2023-05-20T04:42:35.478Z,100.00
2023-05-20T04:45:04.511Z,100.00
2023-05-20T04:47:32.395Z,100.00
2023-05-20T04:49:59.239Z,100.00
2023-05-20T04:52:26.549Z,100.00
2023-05-20T04:54:54.159Z,100.00
2023-05-20T04:57:21.143Z,100.00
2023-05-20T04:59:48.232Z,100.00
2023-05-20T05:02:15.468Z,100.00
2023-05-20T05:04:42.393Z,100.00
2023-05-20T05:07:09.604Z,100.00
2023-05-20T05:09:36.540Z,100.00
2023-05-20T05:12:03.531Z,100.00
2023-05-20T05:14:30.395Z,100.00
2023-05-20T05:16:57.605Z,100.00
2023-05-20T05:19:24.528Z,100.00
2023-05-20T05:21:52.342Z,100.00
2023-05-20T05:24:19.438Z,100.00
2023-05-20T05:26:46.561Z,100.00
2023-05-20T05:29:14.743Z,100.00
2023-05-20T05:31:41.570Z,100.00
2023-05-20T05:34:08.728Z,100.00
2023-05-20T05:36:35.688Z,100.00
2023-05-20T05:39:02.577Z,100.00
2023-05-20T05:41:29.883Z,100.00
2023-05-20T05:43:58.675Z,100.00
2023-05-20T05:46:26.006Z,100.00
2023-05-20T05:48:52.784Z,100.00
2023-05-20T05:51:19.617Z,100.00
2023-05-20T05:53:47.340Z,100.00
2023-05-20T05:56:14.553Z,100.00
2023-05-20T05:58:42.176Z,100.00
2023-05-20T06:01:09.065Z,100.00
2023-05-20T06:03:35.936Z,100.00
2023-05-20T06:06:03.186Z,100.00
2023-05-20T06:08:30.810Z,100.00
2023-05-20T06:10:57.622Z,100.00
2023-05-20T06:13:24.575Z,100.00
2023-05-20T06:15:51.431Z,100.00
2023-05-20T06:18:18.215Z,100.00
2023-05-20T06:20:45.237Z,100.00
2023-05-20T06:23:12.240Z,100.00
2023-05-20T06:25:59.714Z,100.00
2023-05-20T06:28:27.444Z,100.00
2023-05-20T06:30:55.036Z,100.00
2023-05-20T06:33:26.229Z,100.00
2023-05-20T06:35:53.918Z,100.00
2023-05-20T06:38:21.101Z,100.00
2023-05-20T06:40:51.205Z,100.00
2023-05-20T06:43:18.669Z,100.00
2023-05-20T06:46:04.077Z,100.00
2023-05-20T06:48:36.216Z,100.00
2023-05-20T06:51:04.263Z,100.00
2023-05-20T06:53:31.224Z,100.00
2023-05-20T06:55:58.245Z,100.00
2023-05-20T06:58:26.199Z,100.00
2023-05-20T07:00:54.967Z,100.00
2023-05-20T07:03:23.130Z,100.00
2023-05-20T07:05:51.450Z,100.00
2023-05-20T07:08:19.096Z,100.00
2023-05-20T07:10:46.800Z,100.00
2023-05-20T07:13:17.209Z,100.00
2023-05-20T07:15:46.944Z,100.00
2023-05-20T07:18:14.379Z,100.00
2023-05-20T07:20:41.940Z,100.00
2023-05-20T07:23:15.861Z,100.00
2023-05-20T07:25:47.889Z,100.00
2023-05-20T07:28:16.196Z,100.00
2023-05-20T07:30:49.963Z,100.00
2023-05-20T07:33:28.101Z,100.00
2023-05-20T07:35:54.976Z,100.00
2023-05-20T07:38:22.699Z,100.00
2023-05-20T07:40:56.150Z,100.00
2023-05-20T07:43:23.155Z,100.00
2023-05-20T07:45:51.018Z,100.00
2023-05-20T07:48:18.150Z,100.00
2023-05-20T07:50:45.196Z,100.00
2023-05-20T07:53:12.432Z,100.00
2023-05-20T07:55:39.621Z,100.00
2023-05-20T07:58:06.937Z,100.00
2023-05-20T08:00:35.994Z,100.00
2023-05-20T08:03:04.561Z,100.00
2023-05-20T08:05:41.617Z,100.00
2023-05-20T08:08:10.528Z,100.00
2023-05-20T08:10:45.885Z,100.00
2023-05-20T08:13:12.763Z,100.00
2023-05-20T08:15:39.802Z,100.00
2023-05-20T08:18:07.224Z,100.00
2023-05-20T08:20:34.268Z,100.00
2023-05-20T08:23:01.189Z,100.00
2023-05-20T08:25:28.282Z,100.00
2023-05-20T08:27:55.844Z,100.00
2023-05-20T08:30:22.893Z,100.00
2023-05-20T08:32:49.754Z,100.00
2023-05-20T08:35:16.662Z,100.00
2023-05-20T08:37:43.478Z,100.00
2023-05-20T08:40:11.895Z,100.00
2023-05-20T08:42:42.584Z,100.00
2023-05-20T08:45:13.737Z,100.00
2023-05-20T08:47:43.071Z,100.00
2023-05-20T08:50:11.626Z,100.00
2023-05-20T08:52:45.438Z,100.00
2023-05-20T08:55:17.991Z,100.00
2023-05-20T08:57:45.989Z,100.00
2023-05-20T09:00:15.663Z,100.00
2023-05-20T09:02:43.171Z,100.00
2023-05-20T09:05:11.175Z,100.00
2023-05-20T09:07:38.183Z,100.00
2023-05-20T09:10:05.807Z,100.00
2023-05-20T09:12:32.664Z,100.00
2023-05-20T09:14:59.460Z,99.99
2023-05-20T09:17:26.362Z,98.86
2023-05-20T09:19:53.904Z,95.25
2023-05-20T09:22:24.820Z,94.12
2023-05-20T09:24:52.498Z,93.10
2023-05-20T09:27:20.467Z,92.89
2023-05-20T09:29:51.211Z,92.71
2023-05-20T09:32:19.827Z,92.14
2023-05-20T09:34:47.241Z,92.35
2023-05-20T09:37:15.199Z,92.50
2023-05-20T09:39:49.730Z,92.33
2023-05-20T09:42:21.256Z,91.82
2023-05-20T09:44:48.612Z,90.54
2023-05-20T09:47:15.475Z,89.81
2023-05-20T09:49:42.382Z,90.39
2023-05-20T09:52:09.321Z,90.53
2023-05-20T09:54:36.831Z,89.84
2023-05-20T09:57:03.864Z,89.78
2023-05-20T09:59:31.555Z,90.14
2023-05-20T10:01:58.562Z,90.13
2023-05-20T10:04:25.712Z,90.19
2023-05-20T10:07:33.901Z,89.67
2023-05-20T10:10:30.076Z,87.63
2023-05-20T10:13:21.389Z,87.13
2023-05-20T10:16:23.797Z,86.09
2023-05-20T10:19:09.625Z,84.26
2023-05-20T10:21:36.482Z,83.86
2023-05-20T10:24:10.179Z,83.44
2023-05-20T10:26:41.772Z,82.52
2023-05-20T10:29:18.259Z,82.96
2023-05-20T10:31:52.018Z,83.14
2023-05-20T10:34:21.030Z,83.77
2023-05-20T10:36:53.913Z,84.24
2023-05-20T10:39:27.797Z,84.42
2023-05-20T10:42:08.546Z,84.80
2023-05-20T10:44:47.511Z,85.31
2023-05-20T10:49:47.642Z,83.08
2023-05-20T10:52:14.664Z,81.48
2023-05-20T10:54:54.948Z,81.91
2023-05-20T10:57:22.525Z,82.01
2023-05-20T10:59:49.585Z,82.20
2023-05-20T11:04:50.765Z,82.06
2023-05-20T11:07:31.005Z,81.30
2023-05-20T11:09:58.561Z,81.14
2023-05-20T11:12:26.224Z,82.03
2023-05-20T11:14:53.147Z,81.81
2023-05-20T11:17:20.173Z,79.94
2023-05-20T11:19:47.614Z,79.68
2023-05-20T11:22:14.554Z,79.78
2023-05-20T11:24:41.825Z,79.54
2023-05-20T11:27:08.579Z,79.48
2023-05-20T11:29:35.532Z,78.63
2023-05-20T11:32:02.474Z,78.96
2023-05-20T11:34:37.466Z,79.75
2023-05-20T11:37:11.475Z,80.20
2023-05-20T11:39:38.459Z,80.96
2023-05-20T11:42:06.592Z,81.19
2023-05-20T11:44:33.504Z,81.43
2023-05-20T11:47:01.668Z,81.88
2023-05-20T11:49:28.867Z,81.06
2023-05-20T11:51:56.740Z,80.82
2023-05-20T11:54:24.500Z,80.31
2023-05-20T11:56:51.701Z,79.97
2023-05-20T11:59:18.644Z,80.00
2023-05-20T12:01:45.767Z,80.50
2023-05-20T12:04:17.561Z,80.82
2023-05-20T12:06:44.545Z,80.49
2023-05-20T12:09:11.569Z,80.65
2023-05-20T12:11:42.009Z,79.97
2023-05-20T12:14:09.231Z,80.14
2023-05-20T12:16:36.902Z,79.91
2023-05-20T12:19:04.183Z,78.74
2023-05-20T12:21:31.590Z,76.58
2023-05-20T12:24:01.854Z,74.48
2023-05-20T12:26:29.147Z,72.83
2023-05-20T12:28:56.535Z,71.87
2023-05-20T12:31:23.857Z,71.07
2023-05-20T12:33:50.904Z,70.31
2023-05-20T12:36:19.915Z,69.51
2023-05-20T12:38:47.253Z,68.40
2023-05-20T12:41:14.467Z,67.79
2023-05-20T12:43:41.661Z,68.07
2023-05-20T12:46:08.758Z,67.73
2023-05-20T12:48:36.916Z,67.47
2023-05-20T12:51:04.083Z,67.14
2023-05-20T12:53:31.147Z,66.95
2023-05-20T12:55:58.225Z,66.35
2023-05-20T12:58:25.137Z,66.11
2023-05-20T13:00:51.987Z,65.80
2023-05-20T13:03:18.995Z,65.71
2023-05-20T13:05:46.320Z,65.58
2023-05-20T13:08:14.842Z,64.88
2023-05-20T13:10:42.199Z,63.23
2023-05-20T13:13:09.058Z,62.65
2023-05-20T13:15:36.798Z,62.33
2023-05-20T13:18:06.129Z,62.51
2023-05-20T13:20:33.093Z,62.39
2023-05-20T13:23:00.137Z,62.74
2023-05-20T13:25:28.010Z,62.80
2023-05-20T13:27:54.815Z,62.85
2023-05-20T13:30:21.776Z,62.17
2023-05-20T13:32:48.582Z,62.47
2023-05-20T13:35:16.996Z,61.75
2023-05-20T13:37:44.014Z,58.65
2023-05-20T13:40:11.837Z,56.33
2023-05-20T13:42:38.627Z,55.95
2023-05-20T13:45:06.463Z,55.30
2023-05-20T13:47:33.485Z,54.46
2023-05-20T13:50:02.794Z,53.99
2023-05-20T13:52:30.399Z,52.99
2023-05-20T13:54:57.327Z,51.85
2023-05-20T13:57:24.118Z,50.87
2023-05-20T13:59:51.071Z,50.05
2023-05-20T14:02:18.113Z,49.52
2023-05-20T14:04:47.035Z,48.73
2023-05-20T14:07:14.060Z,47.39
2023-05-20T14:09:41.073Z,47.08
2023-05-20T14:12:08.277Z,47.00
2023-05-20T14:14:35.419Z,47.04
2023-05-20T14:17:02.211Z,47.44
2023-05-20T14:19:30.164Z,47.39
2023-05-20T14:21:59.017Z,47.22
2023-05-20T14:24:25.850Z,46.99
2023-05-20T14:26:53.756Z,47.13
2023-05-20T14:29:21.052Z,46.89
2023-05-20T14:31:48.094Z,47.40
2023-05-20T14:34:14.981Z,47.41
2023-05-20T14:36:42.166Z,47.33
2023-05-20T14:39:09.792Z,46.63
2023-05-20T14:41:36.589Z,46.75
2023-05-20T14:44:03.564Z,46.26
2023-05-20T14:46:30.828Z,45.44
2023-05-20T14:48:57.809Z,44.94
2023-05-20T14:51:24.632Z,44.18
2023-05-20T14:53:51.462Z,43.70
2023-05-20T14:56:18.316Z,43.37
2023-05-20T14:58:45.112Z,43.00
2023-05-20T15:01:12.156Z,42.06
2023-05-20T15:03:39.268Z,40.12
2023-05-20T15:06:06.327Z,38.05
2023-05-20T15:08:33.190Z,36.71
2023-05-20T15:11:00.025Z,35.63
2023-05-20T15:13:26.978Z,34.35
2023-05-20T15:15:54.083Z,33.36
2023-05-20T15:18:20.925Z,32.66
2023-05-20T15:20:47.728Z,32.15
2023-05-20T15:23:14.584Z,31.51
2023-05-20T15:25:41.307Z,30.57
2023-05-20T15:28:08.760Z,30.86
2023-05-20T15:30:35.974Z,30.91
2023-05-20T15:33:03.267Z,30.31
2023-05-20T15:35:30.235Z,30.11
2023-05-20T15:37:57.386Z,29.99
2023-05-20T15:40:24.375Z,29.23
2023-05-20T15:42:51.647Z,28.39
2023-05-20T15:45:18.637Z,27.92
2023-05-20T15:47:45.550Z,27.71
2023-05-20T15:50:12.630Z,27.25
2023-05-20T15:52:40.049Z,26.51
2023-05-20T15:55:07.978Z,25.84
2023-05-20T15:57:34.779Z,25.59
2023-05-20T16:00:01.690Z,24.78
2023-05-20T16:02:28.787Z,24.62
2023-05-20T16:04:55.947Z,24.62
2023-05-20T16:07:22.732Z,24.49
2023-05-20T16:09:49.557Z,24.11
2023-05-20T16:12:17.121Z,24.00
2023-05-20T16:14:44.891Z,23.80
2023-05-20T16:17:12.274Z,23.81
2023-05-20T16:19:39.314Z,23.93
2023-05-20T16:22:06.196Z,23.88
2023-05-20T16:24:32.952Z,24.04
2023-05-20T16:26:59.728Z,24.27
2023-05-20T16:29:26.493Z,24.50
2023-05-20T16:31:53.439Z,24.45
2023-05-20T16:34:20.461Z,25.03
2023-05-20T16:36:47.303Z,25.42
2023-05-20T16:39:14.795Z,25.66
2023-05-20T16:41:42.055Z,25.81
2023-05-20T16:44:08.996Z,26.10
2023-05-20T16:46:36.060Z,26.49
2023-05-20T16:49:02.873Z,26.66
2023-05-20T16:51:29.734Z,27.03
2023-05-20T16:53:56.608Z,27.45
2023-05-20T16:56:23.420Z,27.82
2023-05-20T16:58:52.783Z,28.16
2023-05-20T17:01:20.376Z,28.53
2023-05-20T17:03:47.392Z,28.99
2023-05-20T17:06:14.224Z,29.25
2023-05-20T17:08:41.308Z,29.85
2023-05-20T17:11:08.460Z,30.55
2023-05-20T17:13:35.824Z,31.23
2023-05-20T17:16:02.753Z,31.96
2023-05-20T17:18:29.623Z,32.70
2023-05-20T17:20:56.396Z,33.49
2023-05-20T17:23:23.227Z,34.28
2023-05-20T17:25:50.197Z,34.89
2023-05-20T17:28:17.925Z,35.77
2023-05-20T17:30:45.086Z,36.67
2023-05-20T17:33:12.060Z,37.50
2023-05-20T17:35:39.470Z,38.45
2023-05-20T17:38:06.375Z,39.28
2023-05-20T17:40:33.479Z,39.93
2023-05-20T17:43:01.358Z,40.67
2023-05-20T17:45:28.268Z,41.53
2023-05-20T17:47:55.165Z,42.39
2023-05-20T17:50:22.006Z,43.10
2023-05-20T17:52:48.872Z,43.91
2023-05-20T17:55:18.371Z,44.78
2023-05-20T17:57:45.241Z,45.65
2023-05-20T18:00:13.201Z,46.17
2023-05-20T18:02:47.373Z,46.88
2023-05-20T18:05:16.963Z,47.48
2023-05-20T18:07:43.887Z,48.11
2023-05-20T18:10:10.877Z,48.72
2023-05-20T18:12:38.235Z,49.10
2023-05-20T18:15:06.399Z,49.57
2023-05-20T18:17:33.594Z,50.06
2023-05-20T18:20:00.488Z,50.61
2023-05-20T18:22:27.423Z,51.08
2023-05-20T18:24:54.183Z,51.38
2023-05-20T18:27:21.303Z,51.75
2023-05-20T18:29:49.593Z,52.15
2023-05-20T18:32:16.447Z,52.49
2023-05-20T18:34:43.480Z,52.70
2023-05-20T18:37:10.296Z,53.07
2023-05-20T18:39:37.274Z,53.28
2023-05-20T18:42:04.636Z,53.50
2023-05-20T18:44:31.436Z,53.82
2023-05-20T18:46:58.436Z,54.09
2023-05-20T18:49:25.233Z,54.27
2023-05-20T18:51:52.236Z,54.28
2023-05-20T18:54:19.033Z,54.54
2023-05-20T18:56:48.622Z,54.88
2023-05-20T18:59:15.685Z,54.95
2023-05-20T19:01:42.558Z,55.10
2023-05-20T19:04:09.444Z,55.43
2023-05-20T19:06:37.669Z,55.62
2023-05-20T19:09:04.800Z,55.72
2023-05-20T19:11:31.690Z,56.00
2023-05-20T19:13:58.772Z,56.15
2023-05-20T19:16:26.245Z,56.21
2023-05-20T19:18:53.203Z,56.30
2023-05-20T19:21:20.010Z,56.39
2023-05-20T19:23:47.136Z,56.43
2023-05-20T19:26:15.088Z,56.40
2023-05-20T19:28:42.297Z,56.38
2023-05-20T19:31:09.154Z,56.32
2023-05-20T19:33:36.141Z,56.41
2023-05-20T19:36:03.012Z,56.47
2023-05-20T19:38:29.834Z,56.54
2023-05-20T19:40:56.635Z,56.59
2023-05-20T19:43:24.297Z,56.65
2023-05-20T19:45:51.484Z,56.59
2023-05-20T19:48:20.025Z,56.70
2023-05-20T19:50:49.262Z,56.64
2023-05-20T19:53:16.075Z,56.63
2023-05-20T19:55:43.259Z,56.58
2023-05-20T19:58:10.275Z,56.58
2023-05-20T20:00:37.381Z,56.63
2023-05-20T20:03:06.519Z,56.69
2023-05-20T20:05:34.251Z,56.73
2023-05-20T20:08:01.486Z,56.76
2023-05-20T20:10:30.758Z,56.86
2023-05-20T20:12:57.548Z,56.89
2023-05-20T20:15:25.448Z,57.08
2023-05-20T20:17:52.575Z,57.21
2023-05-20T20:20:19.736Z,57.45
2023-05-20T20:22:46.541Z,57.55
2023-05-20T20:25:16.546Z,57.52
2023-05-20T20:27:44.185Z,57.40
2023-05-20T20:30:13.631Z,57.36
2023-05-20T20:32:41.178Z,57.22
2023-05-20T20:35:08.553Z,57.20
2023-05-20T20:37:36.254Z,57.22
2023-05-20T20:40:04.196Z,57.12
2023-05-20T20:42:31.508Z,57.08
2023-05-20T20:44:58.489Z,57.12
2023-05-20T20:47:29.334Z,57.22
2023-05-20T20:49:56.606Z,57.40
2023-05-20T20:52:23.521Z,57.56
2023-05-20T20:54:50.463Z,57.67
2023-05-20T20:57:17.591Z,57.87
2023-05-20T20:59:48.110Z,58.06
2023-05-20T21:02:15.107Z,58.25
2023-05-20T21:04:42.996Z,58.31
2023-05-20T21:07:09.999Z,58.41
2023-05-20T21:09:36.787Z,58.50
2023-05-20T21:12:06.963Z,58.71
2023-05-20T21:14:33.882Z,58.85
2023-05-20T21:17:00.864Z,58.98
2023-05-20T21:19:28.210Z,59.13
2023-05-20T21:21:55.485Z,59.28
2023-05-20T21:24:22.437Z,59.39
2023-05-20T21:26:49.207Z,59.55
2023-05-20T21:29:16.362Z,59.64
2023-05-20T21:31:43.277Z,59.82
2023-05-20T21:34:10.118Z,59.86
2023-05-20T21:36:37.103Z,60.08
2023-05-20T21:39:03.982Z,60.17
2023-05-20T21:41:30.862Z,60.31
2023-05-20T21:43:57.619Z,60.38
2023-05-20T21:46:24.436Z,60.40
2023-05-20T21:48:51.288Z,60.55
2023-05-20T21:51:18.107Z,60.67
2023-05-20T21:53:44.922Z,60.71
2023-05-20T21:56:11.831Z,60.80
2023-05-20T21:58:41.402Z,60.70
2023-05-20T22:01:10.057Z,60.72
2023-05-20T22:03:38.261Z,60.75
2023-05-20T22:06:05.864Z,60.63
2023-05-20T22:08:35.565Z,60.65
2023-05-20T22:11:05.455Z,60.79
2023-05-20T22:13:33.345Z,60.81
2023-05-20T22:16:05.166Z,60.85
2023-05-20T22:18:32.134Z,60.88
2023-05-20T22:21:01.771Z,60.89
2023-05-20T22:23:28.912Z,61.06
2023-05-20T22:25:56.260Z,61.13
2023-05-20T22:28:23.890Z,61.23
2023-05-20T22:30:51.659Z,61.37
2023-05-20T22:33:18.712Z,61.39
2023-05-20T22:35:45.660Z,61.56
2023-05-20T22:38:12.461Z,61.67
2023-05-20T22:40:39.468Z,61.82
2023-05-20T22:43:06.382Z,62.04
2023-05-20T22:45:33.340Z,62.18
2023-05-20T22:48:02.066Z,62.28
2023-05-20T22:50:29.169Z,62.42
2023-05-20T22:52:55.996Z,62.63
2023-05-20T22:55:24.046Z,62.72
2023-05-20T22:57:50.873Z,62.79
2023-05-20T23:00:18.188Z,62.94
2023-05-20T23:02:50.084Z,63.13
2023-05-20T23:05:17.462Z,63.32
2023-05-20T23:07:45.119Z,63.54
2023-05-20T23:10:11.985Z,63.75
2023-05-20T23:12:39.098Z,63.91
2023-05-20T23:15:06.850Z,64.16
2023-05-20T23:17:33.708Z,64.45
2023-05-20T23:22:34.875Z,64.87
2023-05-20T23:25:03.264Z,65.15
2023-05-20T23:27:30.520Z,65.58
2023-05-20T23:29:58.377Z,65.85
2023-05-20T23:32:25.882Z,66.12
2023-05-20T23:34:53.583Z,66.33
2023-05-20T23:37:20.529Z,66.70
2023-05-20T23:39:47.665Z,67.01
2023-05-20T23:42:14.462Z,67.31
2023-05-20T23:44:41.438Z,67.60
2023-05-20T23:47:08.211Z,67.98
2023-05-20T23:49:35.037Z,68.23
2023-05-20T23:52:01.805Z,68.46
2023-05-20T23:54:28.561Z,68.79
2023-05-20T23:56:55.693Z,68.98
2023-05-20T23:59:22.790Z,69.35
